الصفحة الرئيسية
METAR-TAF:

METAR-TAF

مطار :

كولورادو سبرينغس, كولورادو, الولايات المتحدة

دائرة عرض: 38-56-45N, خط طول: 104-34-12W, ارتفاع: 2095 متر

مراقبة الطقس الحالي

تاريخ ووقت الإصدار 9 دقيقة قبل الساعة 15:55UTC
ريح 4 عقدة من الغرب
درجة الحرارة 5°درجة مئوية
الرطوبة 65%
ضغط 1027 hPa
الرؤية: 16.1 كم
سماء صافية

METAR: KFLY 251555Z AUTO 26004KT 10SM CLR 05/M01 A3034 RMK AO2 T00471011

زمن: 10:04 (16:04 UTC)


TAF: مفقودة

أرصاد الطقس والتوقعات من أكثر من 4000 مطار (تقارير الطقس للمطار METAR والتنبؤ بالطقس بالمطارTAF).

المحطات المتاحة هي النقط الصفراء والحمراء على الخريطة.

حرك المؤشر فوق النقطة لمعرفة اسم المحطة.

ثم انقر لمعرفة أرصاد وتوقعات الطقس.

لتغيير الخارطة: اضغط على الأزرار الخضراء مع رمز الصليب الأسود للتكبير. على الزر الأخضر مع شرطة للتصغير، أو على الأسهم الخضراء للخرائط المجاورة.


METAR-TAF: